Ara Antwerpen — ZDPG8 — position and weather

sailwx.info

Track history (hours):
 
Tides and Currents Weather Stations Pressure Air Temp Water Temp Dewpoint Dewpoint Depression Visibility Wind Speed Wind Dir Waves Ship Positions

Ara Antwerpen

Last reported at 2018-Jun-25 01:27 UTC. Time now 2018-Jun-25 10:03 UTC.
Position N 28°43' W 013°09'.

Length 145 m; draft 4.8 m.

Type: Cargo ship. MMSI: 236670000.

Date/timePositionNaut miles runAvg speedWind from/ knotsBaromVisibWave heightAir tempDewpointWater temp
2018-Jun-25 01:27N 28°43' W 013°09'3313.1
2018-Jun-24 22:55N 28°15' W 013°29'613.3
2018-Jun-24 22:30N 28°10' W 013°32'713.4
2018-Jun-24 22:00N 28°05' W 013°36'713.1
2018-Jun-24 21:29N 27°59' W 013°40'613.0
2018-Jun-24 21:00N 27°54' W 013°44'713.1
2018-Jun-24 20:29N 27°48' W 013°48'713.2
2018-Jun-24 19:59N 27°43' W 013°53'913.2
2018-Jun-24 19:19N 27°35' W 013°58'513.5
2018-Jun-24 18:58N 27°31' W 014°01'2513.7
2018-Jun-24 17:09N 27°12' W 014°18'213.8
2018-Jun-24 16:59N 27°10' W 014°20'  
Track history (hours):
 
Tides and Currents Weather Stations Pressure Air Temp Water Temp Dewpoint Dewpoint Depression Visibility Wind Speed Wind Dir Waves Ship Positions

Ara Antwerpen

Last reported at 2018-Jun-25 01:27 UTC. Time now 2018-Jun-25 10:03 UTC.
Position N 28°43' W 013°09'.

Length 145 m; draft 4.8 m.

Type: Cargo ship. MMSI: 236670000.

Date/timePositionNaut miles runAvg speedWind from/ knotsBaromVisibWave heightAir tempDewpointWater temp
2018-Jun-25 01:27N 28°43' W 013°09'3313.1
2018-Jun-24 22:55N 28°15' W 013°29'613.3
2018-Jun-24 22:30N 28°10' W 013°32'713.4
2018-Jun-24 22:00N 28°05' W 013°36'713.1
2018-Jun-24 21:29N 27°59' W 013°40'613.0
2018-Jun-24 21:00N 27°54' W 013°44'713.1
2018-Jun-24 20:29N 27°48' W 013°48'713.2
2018-Jun-24 19:59N 27°43' W 013°53'913.2
2018-Jun-24 19:19N 27°35' W 013°58'513.5
2018-Jun-24 18:58N 27°31' W 014°01'2513.7
2018-Jun-24 17:09N 27°12' W 014°18'213.8
2018-Jun-24 16:59N 27°10' W 014°20'  

Dump ship's entire track history